Time;durP1;ratioP1;P1;durP2;ratioP2;P2;SDS_P1;SDS_P2;PMS_P1;PMS_P2;Temp;Humidity;BMP_temperature;BMP_pressure;BME280_temperature;BME280_humidity;BME280_pressure;Samples;Min_cycle;Max_cycle;Signal;HPM_P1;HPM_P2
2022/10/12 00:01:33;;;;;;;;;;;9.50;91.10;;;;;;4987552;28;19932;-68
2022/10/12 00:03:59;;;;;;;;;;;9.40;91.10;;;;;;4995694;28;19921;-69
2022/10/12 00:06:25;;;;;;;;;;;9.40;91.10;;;;;;4991113;28;20001;-68
2022/10/12 00:08:52;;;;;;;;;;;9.40;91.10;;;;;;4996686;28;20386;-69
2022/10/12 00:11:22;;;;;;;;;;;9.40;91.10;;;;;;4991071;28;19925;-69
2022/10/12 00:13:48;;;;;;;;;;;9.40;91.10;;;;;;4994909;28;19939;-69
2022/10/12 00:16:14;;;;;;;;;;;9.40;91.10;;;;;;4985064;28;19925;-68
2022/10/12 00:18:40;;;;;;;;;;;9.40;91.00;;;;;;4987166;28;19921;-69
2022/10/12 00:21:13;;;;;;;;;;;9.40;91.10;;;;;;4986424;28;19925;-68
2022/10/12 00:23:39;;;;;;;;;;;9.30;91.00;;;;;;4992803;28;19984;-69
2022/10/12 00:26:07;;;;;;;;;;;9.30;91.10;;;;;;4989596;28;20358;-68
2022/10/12 00:28:33;;;;;;;;;;;9.30;91.00;;;;;;4992948;28;19909;-68
2022/10/12 00:30:59;;;;;;;;;;;9.30;91.00;;;;;;4991034;28;19918;-68
2022/10/12 00:33:26;;;;;;;;;;;9.30;91.00;;;;;;4990346;28;20351;-69
2022/10/12 00:35:53;;;;;;;;;;;9.30;91.00;;;;;;4990768;28;19917;-69
2022/10/12 00:38:19;;;;;;;;;;;9.30;91.00;;;;;;4993090;28;19920;-68
2022/10/12 00:40:45;;;;;;;;;;;9.20;91.00;;;;;;4996446;28;20689;-69
2022/10/12 00:43:25;;;;;;;;;;;9.20;91.00;;;;;;4995149;28;19925;-68
2022/10/12 00:45:51;;;;;;;;;;;9.20;91.00;;;;;;4989827;28;20005;-69
2022/10/12 00:48:16;;;;;;;;;;;9.20;91.00;;;;;;4986535;28;20053;-69
2022/10/12 00:50:42;;;;;;;;;;;9.20;90.90;;;;;;4986924;28;20405;-68
2022/10/12 00:53:10;;;;;;;;;;;9.20;90.90;;;;;;4986534;28;20099;-69
2022/10/12 00:55:49;;;;;;;;;;;9.20;91.00;;;;;;4992080;28;20670;-68
2022/10/12 00:58:15;;;;;;;;;;;9.20;90.90;;;;;;4984122;28;19918;-68
2022/10/12 01:00:41;;;;;;;;;;;9.20;90.90;;;;;;4990824;28;19975;-68
2022/10/12 01:03:08;;;;;;;;;;;9.10;90.90;;;;;;4992303;28;19921;-68
2022/10/12 01:05:34;;;;;;;;;;;9.10;90.90;;;;;;4988176;28;19925;-68
2022/10/12 01:08:01;;;;;;;;;;;9.10;90.90;;;;;;4985212;28;19918;-69
2022/10/12 01:10:27;;;;;;;;;;;9.10;90.80;;;;;;4992397;28;19926;-69
2022/10/12 01:12:52;;;;;;;;;;;9.10;90.90;;;;;;4990815;28;19917;-68
2022/10/12 01:15:18;;;;;;;;;;;9.10;90.90;;;;;;4989253;28;19964;-69
2022/10/12 01:17:53;;;;;;;;;;;9.10;90.90;;;;;;4984287;28;19960;-69
2022/10/12 01:20:25;;;;;;;;;;;9.10;90.90;;;;;;4992296;28;19913;-68
2022/10/12 01:22:56;;;;;;;;;;;9.10;90.90;;;;;;4989549;28;19940;-69
2022/10/12 01:25:40;;;;;;;;;;;9.00;90.80;;;;;;4993758;28;20324;-69
2022/10/12 01:28:15;;;;;;;;;;;9.00;90.80;;;;;;4987269;28;20296;-69
2022/10/12 01:30:45;;;;;;;;;;;9.00;90.80;;;;;;4989865;28;19917;-68
2022/10/12 01:33:24;;;;;;;;;;;9.00;90.80;;;;;;4990171;28;20321;-69
2022/10/12 01:36:04;;;;;;;;;;;9.00;90.80;;;;;;4993853;28;19957;-68
2022/10/12 01:38:42;;;;;;;;;;;9.00;90.80;;;;;;4991162;28;19918;-69
2022/10/12 01:41:14;;;;;;;;;;;9.00;90.80;;;;;;4988052;28;19913;-68
2022/10/12 01:43:41;;;;;;;;;;;9.00;90.80;;;;;;4987407;28;19953;-68
2022/10/12 01:46:06;;;;;;;;;;;9.00;90.80;;;;;;4989998;28;19985;-69
2022/10/12 01:48:32;;;;;;;;;;;8.90;90.70;;;;;;4984333;28;19925;-68
2022/10/12 01:50:59;;;;;;;;;;;8.90;90.70;;;;;;4988622;28;20060;-68
2022/10/12 01:53:38;;;;;;;;;;;8.90;90.70;;;;;;4987855;28;19952;-69
2022/10/12 01:56:27;;;;;;;;;;;8.90;90.70;;;;;;4989547;28;19964;-68
2022/10/12 01:58:58;;;;;;;;;;;8.90;90.70;;;;;;4985259;28;19917;-68
2022/10/12 02:01:41;;;;;;;;;;;8.90;90.70;;;;;;4993687;28;19920;-68
2022/10/12 02:04:06;;;;;;;;;;;8.90;90.70;;;;;;4991244;28;23729;-68
2022/10/12 02:06:35;;;;;;;;;;;8.90;90.70;;;;;;4986734;28;20456;-69
2022/10/12 02:09:27;;;;;;;;;;;8.90;90.70;;;;;;4980859;28;19914;-69
2022/10/12 02:11:56;;;;;;;;;;;8.90;90.70;;;;;;4987758;28;20766;-68
2022/10/12 02:14:42;;;;;;;;;;;8.80;90.70;;;;;;4982775;28;19924;-68
2022/10/12 02:17:10;;;;;;;;;;;8.80;90.70;;;;;;4992923;28;19937;-68
2022/10/12 02:19:38;;;;;;;;;;;8.80;90.70;;;;;;4990044;28;19913;-68
2022/10/12 02:22:04;;;;;;;;;;;8.80;90.70;;;;;;4992200;28;19949;-69
2022/10/12 02:24:33;;;;;;;;;;;8.80;90.70;;;;;;4989152;28;19918;-68
2022/10/12 02:26:59;;;;;;;;;;;8.80;90.70;;;;;;4993105;28;19917;-68
2022/10/12 02:29:28;;;;;;;;;;;8.80;90.60;;;;;;4991851;28;19992;-68
2022/10/12 02:32:13;;;;;;;;;;;8.80;90.60;;;;;;4992167;28;19976;-68
2022/10/12 02:34:44;;;;;;;;;;;8.70;90.60;;;;;;4992024;28;19918;-68
2022/10/12 02:37:30;;;;;;;;;;;8.80;90.60;;;;;;4986846;28;19981;-68
2022/10/12 02:40:01;;;;;;;;;;;8.80;90.60;;;;;;4987615;28;19918;-69
2022/10/12 02:42:29;;;;;;;;;;;8.70;90.60;;;;;;4993336;28;19968;-68
2022/10/12 02:44:56;;;;;;;;;;;8.70;90.60;;;;;;4994671;28;19918;-69
2022/10/12 02:47:23;;;;;;;;;;;8.80;90.60;;;;;;4999352;28;20024;-68
2022/10/12 02:49:50;;;;;;;;;;;8.70;90.60;;;;;;5000407;28;20028;-68
2022/10/12 02:52:15;;;;;;;;;;;8.70;90.60;;;;;;4990051;28;20363;-68
2022/10/12 02:54:41;;;;;;;;;;;8.70;90.60;;;;;;4988467;28;19914;-69
2022/10/12 02:57:06;;;;;;;;;;;8.70;90.60;;;;;;4986770;28;19925;-68
2022/10/12 02:59:32;;;;;;;;;;;8.70;90.60;;;;;;4999039;28;19917;-69
2022/10/12 03:01:57;;;;;;;;;;;8.70;90.60;;;;;;4995442;28;20408;-68
2022/10/12 03:04:23;;;;;;;;;;;8.70;90.60;;;;;;4997550;28;19913;-68
2022/10/12 03:06:48;;;;;;;;;;;8.60;90.60;;;;;;4996941;28;19917;-70
2022/10/12 03:09:14;;;;;;;;;;;8.60;90.50;;;;;;4989921;28;19924;-69
2022/10/12 03:11:42;;;;;;;;;;;8.60;90.50;;;;;;4993714;28;19925;-68
2022/10/12 03:14:11;;;;;;;;;;;8.60;90.60;;;;;;4992702;28;20608;-71
2022/10/12 03:16:37;;;;;;;;;;;8.60;90.50;;;;;;4995636;28;20476;-68
2022/10/12 03:19:02;;;;;;;;;;;8.60;90.50;;;;;;4997193;28;20000;-68
2022/10/12 03:21:28;;;;;;;;;;;8.60;90.50;;;;;;4998178;28;19910;-68
2022/10/12 03:23:53;;;;;;;;;;;8.60;90.50;;;;;;4993081;28;20270;-68
2022/10/12 03:26:19;;;;;;;;;;;8.60;90.50;;;;;;4999383;28;20724;-68
2022/10/12 03:28:44;;;;;;;;;;;8.60;90.50;;;;;;4992771;28;19937;-68
2022/10/12 03:31:10;;;;;;;;;;;8.60;90.50;;;;;;4995558;28;19991;-68
2022/10/12 03:33:35;;;;;;;;;;;8.60;90.50;;;;;;4995349;28;19924;-68
2022/10/12 03:36:01;;;;;;;;;;;8.60;90.50;;;;;;4997183;28;19949;-68
2022/10/12 03:38:26;;;;;;;;;;;8.50;90.50;;;;;;4993598;28;19922;-68
2022/10/12 03:40:52;;;;;;;;;;;8.60;90.50;;;;;;4993126;28;19918;-69
2022/10/12 03:43:17;;;;;;;;;;;8.50;90.50;;;;;;4983646;28;20590;-68
2022/10/12 03:45:43;;;;;;;;;;;8.50;90.50;;;;;;4995061;28;19918;-68
2022/10/12 03:48:08;;;;;;;;;;;8.50;90.50;;;;;;4996571;28;19922;-68
2022/10/12 03:50:34;;;;;;;;;;;8.50;90.50;;;;;;5002070;28;19995;-68
2022/10/12 03:53:00;;;;;;;;;;;8.50;90.50;;;;;;4995820;28;19992;-68
2022/10/12 03:55:25;;;;;;;;;;;8.50;90.50;;;;;;4998084;28;19913;-68
2022/10/12 03:57:51;;;;;;;;;;;8.50;90.50;;;;;;5000014;28;19913;-68
2022/10/12 04:00:16;;;;;;;;;;;8.50;90.50;;;;;;4996593;28;20641;-68
2022/10/12 04:02:42;;;;;;;;;;;8.50;90.50;;;;;;4995278;28;20056;-68
2022/10/12 04:05:07;;;;;;;;;;;8.40;90.50;;;;;;4987099;28;19918;-68
2022/10/12 04:07:33;;;;;;;;;;;8.40;90.70;;;;;;4995010;28;19917;-68
2022/10/12 04:09:58;;;;;;;;;;;8.40;90.40;;;;;;4988983;28;19921;-68
2022/10/12 04:12:24;;;;;;;;;;;8.40;90.40;;;;;;5001679;28;19920;-68
2022/10/12 04:14:50;;;;;;;;;;;8.40;90.50;;;;;;4987770;28;20299;-68
2022/10/12 04:17:15;;;;;;;;;;;8.40;90.40;;;;;;5000727;28;19960;-68
2022/10/12 04:19:41;;;;;;;;;;;8.40;90.50;;;;;;4991082;28;20394;-68
2022/10/12 04:22:06;;;;;;;;;;;8.40;90.40;;;;;;4994698;28;20006;-69
2022/10/12 04:24:32;;;;;;;;;;;8.40;90.40;;;;;;4992524;28;19926;-68
2022/10/12 04:26:58;;;;;;;;;;;8.40;90.40;;;;;;5000890;28;19921;-68
2022/10/12 04:29:23;;;;;;;;;;;8.40;90.40;;;;;;4998289;28;20008;-68
2022/10/12 04:31:48;;;;;;;;;;;8.40;90.40;;;;;;4995535;28;19925;-68
2022/10/12 04:34:14;;;;;;;;;;;8.40;90.40;;;;;;4996322;28;19913;-68
2022/10/12 04:36:39;;;;;;;;;;;8.30;90.40;;;;;;4990971;28;19948;-68
2022/10/12 04:39:05;;;;;;;;;;;8.30;90.40;;;;;;4992366;28;19925;-68
2022/10/12 04:41:31;;;;;;;;;;;8.30;90.40;;;;;;4993405;28;20291;-69
2022/10/12 04:43:56;;;;;;;;;;;8.30;90.40;;;;;;4996118;28;19976;-68
2022/10/12 04:46:22;;;;;;;;;;;8.30;90.40;;;;;;4995531;28;19917;-69
2022/10/12 04:48:47;;;;;;;;;;;8.30;90.40;;;;;;4995350;28;19916;-68
2022/10/12 04:51:13;;;;;;;;;;;8.30;90.40;;;;;;4993834;28;19921;-68
2022/10/12 04:53:38;;;;;;;;;;;8.40;90.50;;;;;;4996476;28;19972;-68
2022/10/12 04:56:04;;;;;;;;;;;8.30;90.40;;;;;;4996771;28;19917;-68
2022/10/12 04:58:30;;;;;;;;;;;8.30;90.40;;;;;;4996247;28;19988;-68
2022/10/12 05:00:56;;;;;;;;;;;8.30;90.40;;;;;;4996500;28;19922;-68
2022/10/12 05:03:22;;;;;;;;;;;8.30;90.60;;;;;;5000935;28;20539;-68
2022/10/12 05:05:47;;;;;;;;;;;8.30;90.50;;;;;;4996526;28;20514;-69
2022/10/12 05:08:13;;;;;;;;;;;8.30;90.40;;;;;;4992770;28;19914;-68
2022/10/12 05:10:38;;;;;;;;;;;8.40;90.50;;;;;;4996940;28;19922;-69
2022/10/12 05:13:04;;;;;;;;;;;8.30;90.50;;;;;;4990976;28;19968;-69
2022/10/12 05:15:29;;;;;;;;;;;8.30;90.50;;;;;;4994187;28;20239;-70
2022/10/12 05:17:55;;;;;;;;;;;8.30;90.50;;;;;;4998576;28;19918;-68
2022/10/12 05:20:21;;;;;;;;;;;8.30;90.50;;;;;;4999741;28;19960;-68
2022/10/12 05:22:46;;;;;;;;;;;8.30;90.50;;;;;;4990200;28;20101;-69
2022/10/12 05:25:12;;;;;;;;;;;8.30;90.50;;;;;;4989408;28;20633;-68
2022/10/12 05:27:37;;;;;;;;;;;8.30;90.50;;;;;;4997369;28;20036;-68
2022/10/12 05:30:03;;;;;;;;;;;8.30;90.50;;;;;;4995198;28;19922;-68
2022/10/12 05:32:29;;;;;;;;;;;8.30;90.50;;;;;;4987112;28;19948;-68
2022/10/12 05:34:54;;;;;;;;;;;8.30;90.60;;;;;;4996236;28;19935;-69
2022/10/12 05:37:20;;;;;;;;;;;8.30;90.60;;;;;;4989910;28;19922;-68
2022/10/12 05:39:45;;;;;;;;;;;8.30;90.60;;;;;;4991136;28;20351;-68
2022/10/12 05:42:11;;;;;;;;;;;8.30;90.60;;;;;;4990336;28;19910;-68
2022/10/12 05:44:36;;;;;;;;;;;8.30;90.60;;;;;;4992184;28;20004;-68
2022/10/12 05:47:02;;;;;;;;;;;8.30;90.90;;;;;;4999284;28;19910;-68
2022/10/12 05:49:27;;;;;;;;;;;8.30;90.60;;;;;;4989005;28;20614;-68
2022/10/12 05:51:53;;;;;;;;;;;8.30;90.60;;;;;;4997256;28;19917;-68
2022/10/12 05:54:18;;;;;;;;;;;8.30;90.60;;;;;;4995063;28;19913;-68
2022/10/12 05:56:44;;;;;;;;;;;8.30;90.60;;;;;;5000875;28;19921;-69
2022/10/12 05:59:10;;;;;;;;;;;8.20;90.60;;;;;;4990885;28;20373;-68
2022/10/12 06:01:35;;;;;;;;;;;8.20;90.60;;;;;;4996010;28;19925;-69
2022/10/12 06:04:01;;;;;;;;;;;8.20;90.60;;;;;;4999573;28;19918;-71
2022/10/12 06:06:26;;;;;;;;;;;8.20;90.60;;;;;;4995443;28;20399;-68
2022/10/12 06:08:52;;;;;;;;;;;8.30;90.60;;;;;;4989332;28;19968;-69
2022/10/12 06:11:17;;;;;;;;;;;8.20;90.60;;;;;;4996538;28;19913;-68
2022/10/12 06:13:43;;;;;;;;;;;8.30;90.60;;;;;;4996297;28;19922;-68
2022/10/12 06:16:08;;;;;;;;;;;8.20;90.60;;;;;;4995887;28;19914;-67
2022/10/12 06:18:34;;;;;;;;;;;8.20;90.60;;;;;;4987686;28;20107;-68
2022/10/12 06:20:59;;;;;;;;;;;8.20;90.60;;;;;;4990201;28;19921;-68
2022/10/12 06:23:25;;;;;;;;;;;8.20;90.60;;;;;;4994097;28;19952;-68
2022/10/12 06:25:51;;;;;;;;;;;8.20;90.60;;;;;;4990589;28;19918;-68
2022/10/12 06:28:18;;;;;;;;;;;8.20;90.60;;;;;;4993183;28;19913;-68
2022/10/12 06:30:44;;;;;;;;;;;8.20;90.60;;;;;;4986981;28;20012;-68
2022/10/12 06:33:10;;;;;;;;;;;8.10;90.60;;;;;;5000246;28;20050;-68
2022/10/12 06:35:35;;;;;;;;;;;8.20;90.60;;;;;;4986622;28;19921;-68
2022/10/12 06:38:01;;;;;;;;;;;8.20;90.60;;;;;;5001856;28;19917;-68
2022/10/12 06:40:26;;;;;;;;;;;8.10;90.60;;;;;;4996906;28;19984;-68
2022/10/12 06:42:52;;;;;;;;;;;8.20;90.60;;;;;;4997283;28;19956;-68
2022/10/12 06:45:17;;;;;;;;;;;8.20;90.60;;;;;;4988886;28;19921;-68
2022/10/12 06:47:43;;;;;;;;;;;8.20;90.60;;;;;;4995842;28;19929;-68
2022/10/12 06:50:09;;;;;;;;;;;8.20;90.60;;;;;;4995939;28;19921;-68
2022/10/12 06:52:35;;;;;;;;;;;8.20;90.90;;;;;;4993383;28;19917;-68
2022/10/12 06:55:00;;;;;;;;;;;8.20;90.60;;;;;;4998179;28;19914;-68
2022/10/12 06:57:26;;;;;;;;;;;8.20;90.60;;;;;;4995639;28;19921;-68
2022/10/12 06:59:51;;;;;;;;;;;8.20;90.60;;;;;;4989963;28;19913;-69
2022/10/12 07:02:17;;;;;;;;;;;8.20;90.60;;;;;;4996506;28;20011;-68
2022/10/12 07:04:42;;;;;;;;;;;8.20;90.60;;;;;;4999881;28;19921;-68
2022/10/12 07:07:08;;;;;;;;;;;8.20;90.60;;;;;;4991263;28;19917;-68
2022/10/12 07:09:33;;;;;;;;;;;8.20;90.60;;;;;;4998601;28;19921;-68
2022/10/12 07:11:59;;;;;;;;;;;8.20;90.60;;;;;;4991393;28;20762;-68
2022/10/12 07:14:24;;;;;;;;;;;8.20;90.60;;;;;;4996955;28;19914;-68
2022/10/12 07:16:50;;;;;;;;;;;8.30;90.70;;;;;;4993062;28;20486;-68
2022/10/12 07:19:16;;;;;;;;;;;8.20;90.60;;;;;;4991922;28;19913;-68
2022/10/12 07:21:41;;;;;;;;;;;8.20;90.60;;;;;;4996151;28;19960;-68
2022/10/12 07:24:10;;;;;;;;;;;8.20;90.60;;;;;;5001235;28;19914;-68
2022/10/12 07:26:35;;;;;;;;;;;8.20;90.70;;;;;;4992529;28;19932;-68
2022/10/12 07:29:01;;;;;;;;;;;8.20;90.70;;;;;;5000861;28;19918;-68
2022/10/12 07:31:26;;;;;;;;;;;8.30;90.70;;;;;;4999158;28;19957;-68
2022/10/12 07:33:53;;;;;;;;;;;8.30;90.70;;;;;;4996556;28;19924;-68
2022/10/12 07:36:18;;;;;;;;;;;8.30;90.70;;;;;;4994262;28;19991;-68
2022/10/12 07:38:44;;;;;;;;;;;8.30;91.00;;;;;;4995905;28;19957;-69
2022/10/12 07:41:10;;;;;;;;;;;8.30;90.70;;;;;;4995859;28;20530;-68
2022/10/12 07:43:35;;;;;;;;;;;8.30;90.70;;;;;;4988190;28;19917;-68
2022/10/12 07:46:02;;;;;;;;;;;8.30;90.70;;;;;;4998142;28;19996;-68
2022/10/12 07:48:27;;;;;;;;;;;8.30;90.70;;;;;;4992215;28;19927;-68
2022/10/12 07:50:53;;;;;;;;;;;8.40;90.70;;;;;;5000380;28;19918;-68
2022/10/12 07:53:18;;;;;;;;;;;8.40;90.70;;;;;;4989516;28;20003;-68
2022/10/12 07:55:44;;;;;;;;;;;8.40;90.70;;;;;;4996061;28;20025;-68
2022/10/12 07:58:11;;;;;;;;;;;8.40;90.80;;;;;;4997623;28;20031;-68
2022/10/12 08:00:37;;;;;;;;;;;8.50;90.70;;;;;;4990783;28;19918;-68
2022/10/12 08:03:02;;;;;;;;;;;8.40;90.80;;;;;;4993231;28;19971;-68
2022/10/12 08:05:28;;;;;;;;;;;8.40;90.70;;;;;;4998250;28;19921;-68
2022/10/12 08:07:54;;;;;;;;;;;8.50;90.70;;;;;;4991996;28;19914;-68
2022/10/12 08:10:20;;;;;;;;;;;8.50;91.00;;;;;;4996523;28;19926;-68
2022/10/12 08:12:45;;;;;;;;;;;8.50;90.70;;;;;;4995178;28;19925;-68
2022/10/12 08:15:12;;;;;;;;;;;8.60;90.80;;;;;;4989133;28;19925;-68
2022/10/12 08:17:38;;;;;;;;;;;8.60;90.70;;;;;;4994289;28;19964;-68
2022/10/12 08:20:04;;;;;;;;;;;8.70;90.70;;;;;;4993667;28;19922;-68
2022/10/12 08:22:29;;;;;;;;;;;8.70;90.70;;;;;;4998529;28;19996;-68
2022/10/12 08:24:55;;;;;;;;;;;8.70;90.70;;;;;;5000373;28;19918;-68
2022/10/12 08:27:20;;;;;;;;;;;8.80;90.60;;;;;;4997484;28;19936;-69
2022/10/12 08:29:46;;;;;;;;;;;8.80;90.60;;;;;;4992093;28;20418;-68
2022/10/12 08:32:11;;;;;;;;;;;8.90;90.60;;;;;;4994656;28;20762;-68
2022/10/12 08:34:37;;;;;;;;;;;8.90;90.50;;;;;;4990988;28;19922;-68
2022/10/12 08:37:02;;;;;;;;;;;8.90;90.50;;;;;;5003118;28;19917;-68
2022/10/12 08:39:28;;;;;;;;;;;9.00;90.50;;;;;;4997597;28;20712;-68
2022/10/12 08:41:59;;;;;;;;;;;9.00;90.50;;;;;;4996550;28;19914;-68
2022/10/12 08:44:32;;;;;;;;;;;9.00;90.50;;;;;;4987281;28;19918;-68
2022/10/12 08:46:59;;;;;;;;;;;9.10;90.40;;;;;;4998433;28;19972;-68
2022/10/12 08:49:27;;;;;;;;;;;9.10;90.40;;;;;;4993780;28;20534;-69
2022/10/12 08:51:54;;;;;;;;;;;9.10;90.40;;;;;;4990107;28;20350;-68
2022/10/12 08:54:21;;;;;;;;;;;9.20;90.40;;;;;;4997616;28;20430;-68
2022/10/12 08:56:46;;;;;;;;;;;9.20;90.40;;;;;;4997769;28;19948;-68
2022/10/12 08:59:13;;;;;;;;;;;9.20;90.30;;;;;;4998997;28;20551;-68
2022/10/12 09:01:49;;;;;;;;;;;9.20;90.30;;;;;;4988993;28;19984;-68
2022/10/12 09:04:30;;;;;;;;;;;9.30;90.20;;;;;;4999465;28;20012;-68
2022/10/12 09:07:09;;;;;;;;;;;9.30;90.20;;;;;;4987275;28;20032;-68
2022/10/12 09:09:53;;;;;;;;;;;9.30;90.20;;;;;;4995020;28;19925;-68
2022/10/12 09:12:18;;;;;;;;;;;9.40;90.20;;;;;;4991816;28;19918;-68
2022/10/12 09:14:44;;;;;;;;;;;9.40;90.20;;;;;;4995471;28;20593;-68
2022/10/12 09:17:20;;;;;;;;;;;9.40;90.20;;;;;;4992611;28;20473;-68
2022/10/12 09:19:46;;;;;;;;;;;9.40;90.10;;;;;;4994676;28;19914;-68
2022/10/12 09:22:18;;;;;;;;;;;9.50;90.20;;;;;;4991828;28;19936;-68
2022/10/12 09:24:45;;;;;;;;;;;9.50;90.20;;;;;;4998292;28;19985;-68
2022/10/12 09:27:13;;;;;;;;;;;9.50;90.20;;;;;;4992130;28;20710;-68
2022/10/12 09:29:39;;;;;;;;;;;9.50;90.10;;;;;;5002647;28;19914;-68
2022/10/12 09:32:12;;;;;;;;;;;9.50;90.10;;;;;;4997089;28;19924;-68
2022/10/12 09:34:37;;;;;;;;;;;9.50;90.10;;;;;;4995093;28;19941;-68
2022/10/12 09:37:03;;;;;;;;;;;9.60;90.10;;;;;;4993287;28;19991;-69
2022/10/12 09:39:39;;;;;;;;;;;9.60;90.10;;;;;;4996589;28;19999;-68
2022/10/12 09:42:05;;;;;;;;;;;9.60;90.10;;;;;;4994168;28;20381;-68
2022/10/12 09:44:39;;;;;;;;;;;9.60;90.00;;;;;;5000338;28;19914;-68
2022/10/12 09:47:19;;;;;;;;;;;9.70;90.00;;;;;;5001459;28;19929;-68
2022/10/12 09:49:46;;;;;;;;;;;9.70;90.00;;;;;;4999526;28;19917;-68
2022/10/12 09:52:14;;;;;;;;;;;9.80;90.00;;;;;;4997285;28;19913;-68
2022/10/12 09:54:43;;;;;;;;;;;9.80;90.00;;;;;;4994922;28;20282;-68
2022/10/12 09:57:09;;;;;;;;;;;9.80;89.90;;;;;;4994307;28;20008;-68
2022/10/12 09:59:43;;;;;;;;;;;9.90;90.00;;;;;;4995894;28;20025;-69
2022/10/12 10:02:08;;;;;;;;;;;9.90;89.90;;;;;;4998735;28;19936;-68
2022/10/12 10:04:34;;;;;;;;;;;9.90;90.20;;;;;;4996846;28;19914;-68
2022/10/12 10:07:19;;;;;;;;;;;9.90;89.80;;;;;;4995933;28;19984;-68
2022/10/12 10:09:45;;;;;;;;;;;10.00;89.80;;;;;;4993027;28;19954;-69
2022/10/12 10:12:21;;;;;;;;;;;10.10;89.60;;;;;;5000782;28;19935;-68
2022/10/12 10:14:47;;;;;;;;;;;10.10;89.80;;;;;;4988767;28;19918;-68
2022/10/12 10:17:21;;;;;;;;;;;10.20;89.30;;;;;;4997073;28;20043;-68
2022/10/12 10:19:48;;;;;;;;;;;10.30;90.00;;;;;;4992950;28;19918;-68
2022/10/12 10:22:13;;;;;;;;;;;10.30;89.80;;;;;;5002106;28;19945;-68
2022/10/12 10:24:39;;;;;;;;;;;10.40;90.00;;;;;;5000083;28;19963;-68
2022/10/12 10:27:05;;;;;;;;;;;10.40;89.30;;;;;;4995106;28;20060;-68
2022/10/12 10:29:30;;;;;;;;;;;10.40;89.30;;;;;;4992755;28;19944;-68
2022/10/12 10:32:10;;;;;;;;;;;10.50;89.10;;;;;;4996102;28;20291;-69
2022/10/12 10:34:36;;;;;;;;;;;10.60;89.30;;;;;;4990913;28;19963;-69
2022/10/12 10:37:02;;;;;;;;;;;10.60;89.00;;;;;;4998578;28;20601;-69
2022/10/12 10:39:30;;;;;;;;;;;10.70;89.20;;;;;;4996279;28;19925;-69
2022/10/12 10:42:07;;;;;;;;;;;10.70;89.20;;;;;;4998770;28;20374;-69
2022/10/12 10:44:34;;;;;;;;;;;10.70;89.40;;;;;;4993688;28;19917;-69
2022/10/12 10:47:11;;;;;;;;;;;10.80;89.40;;;;;;5003530;28;19936;-69
2022/10/12 10:49:36;;;;;;;;;;;10.80;89.50;;;;;;4986163;28;19967;-69
2022/10/12 10:52:02;;;;;;;;;;;10.80;89.30;;;;;;4991794;28;19925;-68
2022/10/12 10:54:29;;;;;;;;;;;10.80;89.30;;;;;;4993765;28;19945;-68
2022/10/12 10:56:57;;;;;;;;;;;10.90;89.30;;;;;;4998398;28;19917;-69
2022/10/12 10:59:22;;;;;;;;;;;10.90;89.30;;;;;;4999891;28;19924;-69
2022/10/12 11:01:53;;;;;;;;;;;11.00;90.00;;;;;;4995098;28;19910;-69
2022/10/12 11:04:24;;;;;;;;;;;11.00;89.50;;;;;;5001978;28;19916;-69
2022/10/12 11:06:52;;;;;;;;;;;11.10;89.50;;;;;;4989259;28;19933;-69
2022/10/12 11:09:20;;;;;;;;;;;11.10;89.20;;;;;;5001127;28;19917;-69
2022/10/12 11:11:50;;;;;;;;;;;11.20;89.00;;;;;;4995208;28;19921;-69
2022/10/12 11:14:20;;;;;;;;;;;11.20;89.40;;;;;;4995492;28;19914;-69
2022/10/12 11:16:57;;;;;;;;;;;11.30;89.00;;;;;;4996975;28;19921;-68
2022/10/12 11:19:45;;;;;;;;;;;11.30;89.40;;;;;;4999851;28;19910;-69
2022/10/12 11:22:15;;;;;;;;;;;11.40;89.10;;;;;;4986016;28;19921;-69
2022/10/12 11:24:57;;;;;;;;;;;11.50;89.70;;;;;;5003225;28;19961;-69
2022/10/12 11:27:39;;;;;;;;;;;11.50;89.20;;;;;;4988215;28;19918;-69
2022/10/12 11:30:15;;;;;;;;;;;11.60;88.90;;;;;;5002695;28;19913;-69
2022/10/12 11:32:47;;;;;;;;;;;11.70;89.40;;;;;;4990511;28;19979;-69
2022/10/12 11:35:14;;;;;;;;;;;11.80;89.30;;;;;;4997054;28;19941;-69
2022/10/12 11:37:45;;;;;;;;;;;11.90;88.90;;;;;;4993323;28;20389;-69
2022/10/12 11:40:17;;;;;;;;;;;11.90;88.50;;;;;;4996902;28;20405;-69
2022/10/12 11:42:42;;;;;;;;;;;12.00;88.90;;;;;;4992015;28;19913;-69
2022/10/12 11:45:29;;;;;;;;;;;12.20;89.10;;;;;;4994328;28;19928;-69
2022/10/12 11:48:08;;;;;;;;;;;12.20;88.50;;;;;;4993669;28;20496;-69
2022/10/12 11:50:34;;;;;;;;;;;12.30;88.70;;;;;;4997103;28;19928;-69
2022/10/12 11:53:01;;;;;;;;;;;12.40;88.00;;;;;;4991770;28;19917;-69
2022/10/12 11:55:29;;;;;;;;;;;12.50;87.80;;;;;;4993042;28;20459;-69
2022/10/12 11:57:57;;;;;;;;;;;12.60;87.80;;;;;;4996299;28;19955;-69
2022/10/12 12:00:24;;;;;;;;;;;12.70;88.60;;;;;;4999353;28;19910;-69
2022/10/12 12:02:53;;;;;;;;;;;12.80;88.50;;;;;;4993844;28;20363;-69
2022/10/12 12:05:19;;;;;;;;;;;12.80;88.00;;;;;;5001009;28;19956;-69
2022/10/12 12:07:48;;;;;;;;;;;12.90;88.30;;;;;;4994562;28;19949;-69
2022/10/12 12:10:26;;;;;;;;;;;12.90;88.40;;;;;;4992081;28;19935;-69
2022/10/12 12:13:13;;;;;;;;;;;12.90;87.80;;;;;;4981272;28;19914;-69
2022/10/12 12:15:51;;;;;;;;;;;13.00;88.90;;;;;;4994291;28;19940;-69
2022/10/12 12:18:20;;;;;;;;;;;13.00;88.30;;;;;;4990036;28;19928;-69
2022/10/12 12:20:46;;;;;;;;;;;13.10;88.10;;;;;;4992773;28;19913;-69
2022/10/12 12:23:23;;;;;;;;;;;13.20;88.70;;;;;;4994820;28;19918;-69
2022/10/12 12:26:12;;;;;;;;;;;13.30;88.90;;;;;;4988644;28;19921;-69
2022/10/12 12:28:48;;;;;;;;;;;13.30;88.60;;;;;;4987320;28;19929;-69
2022/10/12 12:31:22;;;;;;;;;;;13.30;87.90;;;;;;5002046;28;20236;-69
2022/10/12 12:33:52;;;;;;;;;;;13.40;88.60;;;;;;4991171;28;20000;-69
2022/10/12 12:36:28;;;;;;;;;;;13.50;88.10;;;;;;4995855;28;19971;-69
2022/10/12 12:38:54;;;;;;;;;;;13.60;88.10;;;;;;4993156;28;19918;-69
2022/10/12 12:41:21;;;;;;;;;;;13.60;87.90;;;;;;4992778;28;19921;-69
2022/10/12 12:43:55;;;;;;;;;;;13.60;88.00;;;;;;4993499;28;21050;-69
2022/10/12 12:46:21;;;;;;;;;;;13.70;87.70;;;;;;4991300;28;19914;-69
2022/10/12 12:48:47;;;;;;;;;;;13.70;87.60;;;;;;4994256;28;19910;-69
2022/10/12 12:51:13;;;;;;;;;;;13.70;87.80;;;;;;4999426;28;19968;-69
2022/10/12 12:53:42;;;;;;;;;;;13.70;87.80;;;;;;4988366;28;19975;-69
2022/10/12 12:56:10;;;;;;;;;;;13.80;88.30;;;;;;4993237;28;19918;-69
2022/10/12 12:58:38;;;;;;;;;;;13.80;88.10;;;;;;4991274;28;19922;-70
2022/10/12 13:01:13;;;;;;;;;;;13.80;88.30;;;;;;4990919;28;19967;-69
2022/10/12 13:03:47;;;;;;;;;;;13.90;88.50;;;;;;5005465;28;19953;-70
2022/10/12 13:06:25;;;;;;;;;;;13.90;88.70;;;;;;4990696;28;19928;-69
2022/10/12 13:08:51;;;;;;;;;;;13.90;88.50;;;;;;4990862;28;19936;-69
2022/10/12 13:11:30;;;;;;;;;;;13.90;88.80;;;;;;4986485;28;20446;-71
2022/10/12 13:14:15;;;;;;;;;;;13.90;88.90;;;;;;4989792;28;19910;-70
2022/10/12 13:16:49;;;;;;;;;;;13.90;89.00;;;;;;4986753;28;19935;-69
2022/10/12 13:19:15;;;;;;;;;;;13.90;88.90;;;;;;4989129;28;19918;-69
2022/10/12 13:21:45;;;;;;;;;;;13.90;89.10;;;;;;4993933;28;19937;-69
2022/10/12 13:24:19;;;;;;;;;;;14.00;89.10;;;;;;5001684;28;19917;-69
2022/10/12 13:26:47;;;;;;;;;;;14.00;89.70;;;;;;4989821;28;19921;-69
2022/10/12 13:29:21;;;;;;;;;;;14.00;88.80;;;;;;4989544;28;19913;-69
2022/10/12 13:31:50;;;;;;;;;;;14.10;89.00;;;;;;4980671;28;19925;-69
2022/10/12 13:34:18;;;;;;;;;;;14.10;88.70;;;;;;5000833;28;19913;-69
2022/10/12 13:36:55;;;;;;;;;;;14.20;89.10;;;;;;4995560;28;19923;-69
2022/10/12 13:39:20;;;;;;;;;;;14.20;88.60;;;;;;4998073;28;19914;-69
2022/10/12 13:41:48;;;;;;;;;;;14.20;88.30;;;;;;4991528;28;19914;-69
2022/10/12 13:44:18;;;;;;;;;;;14.20;88.20;;;;;;4994670;28;19917;-69
2022/10/12 13:46:44;;;;;;;;;;;14.20;87.90;;;;;;4988118;28;19913;-69
2022/10/12 13:49:13;;;;;;;;;;;14.30;88.50;;;;;;4995087;28;19964;-69
2022/10/12 13:51:38;;;;;;;;;;;14.40;88.30;;;;;;4987165;28;19922;-69
2022/10/12 13:54:14;;;;;;;;;;;14.40;88.10;;;;;;4994727;28;20015;-69
2022/10/12 13:56:40;;;;;;;;;;;14.40;87.80;;;;;;4991910;28;19924;-69
2022/10/12 13:59:12;;;;;;;;;;;14.50;87.70;;;;;;4994714;28;19913;-69
2022/10/12 14:01:51;;;;;;;;;;;14.50;87.80;;;;;;4985294;28;19909;-69
2022/10/12 14:04:17;;;;;;;;;;;14.50;87.50;;;;;;4992684;28;19922;-69
2022/10/12 14:06:46;;;;;;;;;;;14.60;87.50;;;;;;4990387;28;19914;-69
2022/10/12 14:09:14;;;;;;;;;;;14.60;87.50;;;;;;4995798;28;19913;-69
2022/10/12 14:11:39;;;;;;;;;;;14.70;87.30;;;;;;4986763;28;19943;-69
2022/10/12 14:14:08;;;;;;;;;;;14.70;87.40;;;;;;4997813;28;19933;-70
2022/10/12 14:16:34;;;;;;;;;;;14.70;87.40;;;;;;4997936;28;19910;-70
2022/10/12 14:19:18;;;;;;;;;;;14.70;87.50;;;;;;4991604;28;19917;-69
2022/10/12 14:21:45;;;;;;;;;;;14.70;87.30;;;;;;5011004;28;19914;-70
2022/10/12 14:24:15;;;;;;;;;;;14.80;87.40;;;;;;4991683;28;19956;-69
2022/10/12 14:26:42;;;;;;;;;;;14.80;87.50;;;;;;4998283;28;19920;-70
2022/10/12 14:29:26;;;;;;;;;;;14.80;87.60;;;;;;4988476;28;19917;-69
2022/10/12 14:31:53;;;;;;;;;;;14.80;87.20;;;;;;5003010;28;19918;-69
2022/10/12 14:34:39;;;;;;;;;;;14.80;87.60;;;;;;4994674;28;19922;-69